»·PEaware :: N732SG KSEE-KSBD

N732SG :: KSEE-KSBD

FLIGHT INFORMATION

Flight Status: Arrived
Operator: Privately registered:
United States
More flights under this callsign
Pilot: Scott G. (88)
Aircraft: CESSNA 172 SKYHAWK
(C172)
More flights by this aircraft type
Origin: KSEE Gillespie
United States
Destination: KSBD San Bernardino Intl
United States
More flights between these airports :: More routes between these airports
Route: +
File this flight plan on PilotEdge
Remarks:
Altitude:
(Current/Filed)
6,500ft
Speed:
(Current/Filed)
120kts
Departed: 18-Jan-17 10:32 AM
Arrived: 18-Jan-17 11:26 AM
Distance/Time
Traveled:
78nm/0:54
Distance/Time
To Go:
Arrived

Flight Plot

Page will automatically refresh every two minutes.

Flight plan parsing failed; only flown route is shown


Map Options




Map Legend


Flown Route
Filed Route
Departure Airport
Arrival Airport
Navaid (VOR, NDB)
Fix

Horizontal Profiles

Position Reports

Time Latitude Longitude Heading Altitude Ground
Speed
18-Jan-17 10:23 32.825041 -116.970548 1 377ft 0kts
18-Jan-17 10:24 32.825041 -116.970548 1 377ft 0kts
18-Jan-17 10:25 32.825041 -116.970548 1 377ft 0kts
18-Jan-17 10:26 32.825406 -116.970555 4 376ft 10kts
18-Jan-17 10:27 32.825183 -116.967372 100 383ft 9kts
18-Jan-17 10:28 32.824774 -116.964853 88 392ft 6kts
18-Jan-17 10:29 32.825719 -116.964245 348 394ft 0kts
18-Jan-17 10:30 32.825719 -116.964245 348 394ft 0kts
18-Jan-17 10:31 32.825947 -116.964360 330 393ft 0kts
18-Jan-17 10:32 32.827462 -116.970104 283 431ft 75kts
18-Jan-17 10:33 32.837552 -116.984530 57 1416ft 81kts
18-Jan-17 10:34 32.844256 -116.960563 74 2443ft 78kts
18-Jan-17 10:35 32.849838 -116.934676 73 3303ft 88kts
18-Jan-17 10:36 32.856416 -116.906205 72 4154ft 90kts
18-Jan-17 10:37 32.864586 -116.878187 67 4926ft 93kts
18-Jan-17 10:38 32.872833 -116.847251 71 5517ft 105kts
18-Jan-17 10:39 32.880532 -116.817616 71 5955ft 109kts
18-Jan-17 10:40 32.889028 -116.784801 70 6425ft 110kts
18-Jan-17 10:41 32.917584 -116.774342 4 6471ft 120kts
18-Jan-17 10:42 32.948743 -116.770807 352 6509ft 108kts
18-Jan-17 10:43 32.977241 -116.782099 339 6539ft 112kts
18-Jan-17 10:44 33.006962 -116.794157 339 6537ft 112kts
18-Jan-17 10:45 33.029796 -116.803398 338 6537ft 112kts
18-Jan-17 10:46 33.059081 -116.815253 338 6537ft 111kts
18-Jan-17 10:47 33.088333 -116.827139 338 6537ft 110kts
18-Jan-17 10:48 33.113904 -116.837498 337 6538ft 110kts
18-Jan-17 10:49 33.142913 -116.849261 337 6538ft 110kts
18-Jan-17 10:50 33.171910 -116.860998 337 6537ft 110kts
18-Jan-17 10:51 33.200980 -116.872751 337 6537ft 110kts
18-Jan-17 10:52 33.229901 -116.884441 337 6537ft 110kts
18-Jan-17 10:53 33.255711 -116.894867 338 6538ft 110kts
18-Jan-17 10:54 33.283686 -116.906171 338 6538ft 110kts
18-Jan-17 10:55 33.312583 -116.917844 338 6539ft 110kts
18-Jan-17 10:56 33.341561 -116.929544 338 6540ft 110kts
18-Jan-17 10:57 33.370529 -116.941237 338 6540ft 109kts
18-Jan-17 10:58 33.399400 -116.952822 343 6540ft 110kts
18-Jan-17 10:59 33.429905 -116.945940 11 6542ft 113kts
18-Jan-17 11:00 33.460532 -116.937368 5 6551ft 112kts
18-Jan-17 11:01 33.491246 -116.931849 4 6554ft 112kts
18-Jan-17 11:02 33.519195 -116.937379 313 6552ft 108kts
18-Jan-17 11:03 33.538986 -116.964976 311 6550ft 109kts
18-Jan-17 11:04 33.563129 -116.984656 343 6550ft 109kts
18-Jan-17 11:05 33.592168 -116.995895 339 6547ft 110kts
18-Jan-17 11:06 33.620803 -117.008674 338 6546ft 110kts
18-Jan-17 11:07 33.649271 -117.022194 337 6547ft 110kts
18-Jan-17 11:08 33.677532 -117.036035 337 6548ft 110kts
18-Jan-17 11:09 33.705913 -117.049548 338 6549ft 110kts
18-Jan-17 11:10 33.734278 -117.063003 338 6550ft 110kts
18-Jan-17 11:11 33.762852 -117.076555 338 6551ft 110kts
18-Jan-17 11:12 33.791632 -117.090197 338 6453ft 116kts
18-Jan-17 11:13 33.822215 -117.104700 338 6154ft 119kts
18-Jan-17 11:14 33.854924 -117.110157 356 5850ft 120kts
18-Jan-17 11:15 33.887070 -117.112159 356 5799ft 112kts
18-Jan-17 11:16 33.918291 -117.119919 336 5566ft 119kts
18-Jan-17 11:17 33.948127 -117.137986 332 5263ft 120kts
18-Jan-17 11:18 33.977214 -117.156860 332 4334ft 116kts
18-Jan-17 11:19 34.005294 -117.175209 330 3229ft 115kts
18-Jan-17 11:20 34.030692 -117.198776 322 2126ft 116kts
18-Jan-17 11:21 34.054278 -117.219441 328 1964ft 106kts
18-Jan-17 11:22 34.075044 -117.241407 267 1958ft 102kts
18-Jan-17 11:23 34.071928 -117.268433 258 1805ft 73kts
18-Jan-17 11:24 34.084377 -117.270688 58 1426ft 63kts
18-Jan-17 11:25 34.090298 -117.251728 70 1123ft 57kts
18-Jan-17 11:26 34.094257 -117.242143 358 1099ft 10kts
18-Jan-17 11:27 34.094324 -117.242142 0 1099ft 0kts
18-Jan-17 11:28 34.097686 -117.242183 359 1100ft 18kts
18-Jan-17 11:29 34.102142 -117.243622 319 1100ft 17kts
18-Jan-17 11:30 34.104767 -117.247129 141 1095ft 4kts
18-Jan-17 11:31 34.104759 -117.247121 133 1095ft 0kts

Navigation Log

Ident Type
Flight plan parsing failed, navigation log unavailable